Share

Cape Newenham LRRS, AK

3:06 AM AKDT on April 24, 2014 (GMT -0800)
Platinum (PAPM) Elev 16 ft | 59.01 °N, 161.82 °W | Change Station

Current weather conditions updated 10 minutes ago

Overcast
Overcast
39 °F
Feels Like 34 °F
N
7
Wind Variable Wind from NNW
Sunrise 7:10 AM
Sunset 10:23 PM
Moon Waning Crescent

Today is forecast to be Much Cooler than yesterday.

Pressure 29.63 in
Visibility 10.0 miles
Clouds Overcast 7500 ft
Windchill 34 °F
Dew Point 32 °F
Humidity 76%
Rainfall 0.00 in
Snow Depth Not available.
UV 0 out of 16
Pollen Not available.
Air Quality Not available.
Flu Activity Sporadic
METAR PAPM 241056Z AUTO 34006KT 10SM OVC075 04/00 A2963 RMK AO2 TSNO T00380000 SLP034 $

More Conditions Fewer Conditions

Pressure 29.63 in
Visibility 10.0 miles
Clouds Overcast 7500 ft
Windchill 34 °F
Dew Point 32 °F
Humidity 76%
Rainfall 0.00 in
Snow Depth Not available.
UV 0 out of 16
Pollen Not available.
Air Quality Not available.
Flu Activity Sporadic
METAR PAPM 241056Z AUTO 34006KT 10SM OVC075 04/00 A2963 RMK AO2 TSNO T00380000 SLP034 $

More Conditions Fewer Conditions

10-Day Weather Forecast

Almanac

Astronomy

Apr. 24, 2014 Rise Set
Actual Time 7:10 AM AKDT 10:23 PM AKDT
Civil Twilight 6:23 AM AKDT 11:11 PM AKDT
Nautical Twilight 5:18 AM AKDT 12:17 AM AKDT
Astronomical Twilight 3:24 AM AKDT 2:26 AM AKDT
Moon 5:36 AM AKDT 4:51 PM AKDT
Length of Visible Light 16h 47m
Length of Day
15h 13m
Tomorrow will be 4m 58s longer.
Waning Crescent, 26% of the Moon is Illuminated
Today
Waning Crescent
Apr 29
New
May 6
First Quarter
May 14
Full
May 21
Last Quarter

Today's Extremes

State Highs State Lows

Community

  • Stacked
    Stacked
  • clouds approaching Red Sox Nation
    clouds approaching Red Sox Nation
  • Balance
    Balance
  • Nestled In
    Nestled In
  • Stunning Sunrise
    Stunning Sunrise

WunderPhotos

Upload Photos

1,704,584 photos uploaded!

WunderBlogs® & News

Nearby

Snow Depth

Station Depth Elevation
Port Graham 2 in 300 ft
Mcneil Canyon 3 in 1320 ft
MF Bradley River 17 in 2300 ft
Rocky Point 1 in 500 ft
Nuka Glacier 27 in 1250 ft

Coastal Water Temperatures

Place Temperature
No Stations Reporting

Earthquake Activity

City Distance Mag. Time & Date
No recent earthquake activity has been reported nearby.
Minimum magnitude displayed is 2.5.

Nearby Weather Stations

There are no personal weather stations in this area.

What do you think?

We're not finished. Please let us know what you like, what you don't like, and what you are still missing.